Startpagina
METAR-TAF:

METAR-TAF

Vliegvelden :

Luchthaven Kraków-Balice

Krakau, Polen

breedte: 50-05N, lengte: 019-48E, hoogte: 237 m

Actueel weer

Dit bericht is 36 minuten geleden gemaakt, om 23:00 UTC
Wind 3 kt uit het westzuidwesten
Temperatuur 18°C
Vochtigheid 88%
Druk 1021 hPa
Zicht 10 km of meer
geen wolken onder 1500 m en geen cumulonimbus

METAR: EPKK 182300Z 25003KT CAVOK 18/16 Q1021

Tijdstip: 01:36 (23:36 UTC)

Verwachting

Dit bericht is 3 uur en het 6 minuten geleden gemaakt, om 20:30 UTC
Verwachting geldig van 18 om 21 UTC tot 19 om 21 UTC
Wind 2 kt uit variabele richting
Zicht 10 km of meer
geen wolken onder 1500 m en geen cumulonimbus
Tijdelijke
van 19 om 00 UTC tot 19 om 05 UTC
Zicht: 2000 m
nevel
Wijzigt naar
van 19 om 12 UTC tot 19 om 15 UTC
Wind 10 kt uit het oosten
Tijdelijke
van 19 om 12 UTC tot 19 om 18 UTC
Gebroken wolken op 4000 ft, Stapelwolken.
regenbuien

TAF: EPKK 182030Z 1821/1921 VRB02KT CAVOK TEMPO 1900/1905 2000 BR BECMG 1912/1915 08010KT TEMPO 1912/1918 SHRA BKN040TCU

Waarnemingen en weersverwachtingen van meer dan 4000 vliegvelden (METAR en TAF).

De beschikbare stations zijn de gele en rode punten op de kaart.

Ga met uw muis naar het station om de naam te zien.

Klik dan om waarnemingen en weersverwachtingen te zien.

kaart wijzigen: klik op de groene knoppen met een zwart kruis om in te zoomen, op de groene knop met een streepje om uit te zoomen of op de groene pijlen voor aangrenzende kaarten.


METAR-TAF: